Terminal Aerodrome Forecast
Issued by NWS

Home | Current Version | Previous Version | Text Only | Print | Product List | Glossary On
Versions: 1 2 3 4 5 6 7 8 9 10 11 12 13 14 15 16
000
FTUS43 KICT 301741
TAFHUT
TAF
KHUT 301741Z 3018/3118 VRB03KT P6SM SCT030 BKN100
     FM302100 VRB04KT P6SM VCTS SCT040CB BKN100
     FM310300 06005KT P6SM VCSH SCT040 BKN100
     FM311100 VRB05KT P6SM VCSH SCT015 BKN025=

USA.gov is the U.S. government's official web portal to all federal, state and local government web resources and services.